Time;durP1;ratioP1;P1;durP2;ratioP2;P2;SDS_P1;SDS_P2;PMS_P1;PMS_P2;Temp;Humidity;BMP_temperature;BMP_pressure;BME280_temperature;BME280_humidity;BME280_pressure;Samples;Min_cycle;Max_cycle;Signal;HPM_P1;HPM_P2
2023/09/29 00:01:32;;;;;;;4.33;2.67;;;18.40;99.90;;;;;;5052913;28;20500;-71
2023/09/29 00:03:59;;;;;;;4.63;3.10;;;18.30;99.90;;;;;;5052760;28;20915;-72
2023/09/29 00:06:25;;;;;;;5.33;3.17;;;18.30;99.90;;;;;;5051475;28;20465;-72
2023/09/29 00:08:50;;;;;;;3.97;2.70;;;18.30;99.90;;;;;;5052727;28;20479;-71
2023/09/29 00:11:16;;;;;;;3.87;2.77;;;18.40;99.90;;;;;;5051343;28;20193;-71
2023/09/29 00:13:41;;;;;;;6.57;3.13;;;18.30;99.90;;;;;;5051364;28;20604;-71
2023/09/29 00:16:07;;;;;;;6.10;2.97;;;18.40;99.90;;;;;;5034776;28;20215;-71
2023/09/29 00:18:33;;;;;;;5.30;3.13;;;18.30;99.90;;;;;;5051153;28;20210;-71
2023/09/29 00:20:59;;;;;;;3.83;2.67;;;18.20;99.90;;;;;;5051320;28;20198;-71
2023/09/29 00:23:24;;;;;;;3.60;2.73;;;18.00;99.90;;;;;;5051194;28;20420;-71
2023/09/29 00:25:50;;;;;;;6.17;3.07;;;17.80;99.90;;;;;;5052302;28;20226;-71
2023/09/29 00:28:16;;;;;;;4.03;2.80;;;17.60;99.90;;;;;;5051123;28;20212;-71
2023/09/29 00:30:42;;;;;;;4.00;2.67;;;17.50;99.90;;;;;;5051738;28;20190;-71
2023/09/29 00:33:08;;;;;;;4.10;2.67;;;17.40;99.90;;;;;;5050923;28;20194;-71
2023/09/29 00:35:33;;;;;;;7.73;3.40;;;17.40;99.90;;;;;;5052261;28;20517;-71
2023/09/29 00:38:00;;;;;;;5.20;3.03;;;17.30;99.90;;;;;;5052158;28;20667;-71
2023/09/29 00:40:28;;;;;;;3.37;2.13;;;17.30;99.90;;;;;;5052181;28;20273;-71
2023/09/29 00:42:54;;;;;;;8.40;2.30;;;17.20;99.90;;;;;;5052094;28;20419;-71
2023/09/29 00:45:24;;;;;;;4.53;2.90;;;17.10;99.90;;;;;;5052028;28;20445;-71
2023/09/29 00:47:55;;;;;;;6.40;3.03;;;17.00;99.90;;;;;;5050879;28;20863;-71
2023/09/29 00:50:23;;;;;;;4.97;2.70;;;17.00;99.90;;;;;;5052009;28;20507;-71
2023/09/29 00:52:52;;;;;;;3.10;2.40;;;16.90;99.90;;;;;;5051995;28;20413;-71
2023/09/29 00:55:24;;;;;;;5.80;3.57;;;16.80;99.90;;;;;;5051771;28;20524;-71
2023/09/29 00:57:51;;;;;;;5.97;3.23;;;16.80;99.90;;;;;;5051843;28;20508;-70
2023/09/29 01:02:55;;;;;;;9.60;4.20;;;17.20;99.90;;;;;;5051797;28;20413;-71
2023/09/29 01:05:21;;;;;;;8.60;3.97;;;17.30;99.90;;;;;;5050195;28;20545;-71
2023/09/29 01:07:47;;;;;;;6.27;3.03;;;17.30;99.90;;;;;;5051703;28;20516;-71
2023/09/29 01:10:17;;;;;;;7.43;3.77;;;17.40;99.90;;;;;;5033832;28;20425;-71
2023/09/29 01:12:44;;;;;;;5.37;3.23;;;17.40;99.90;;;;;;5050462;28;20521;-71
2023/09/29 01:15:13;;;;;;;8.60;3.80;;;17.50;99.90;;;;;;5050151;28;20442;-71
2023/09/29 01:17:43;;;;;;;4.77;3.40;;;17.50;99.90;;;;;;5051576;28;20438;-71
2023/09/29 01:20:16;;;;;;;5.37;3.90;;;17.50;99.90;;;;;;5051597;28;20507;-71
2023/09/29 01:22:48;;;;;;;9.30;3.90;;;17.40;99.90;;;;;;5050174;28;20460;-71
2023/09/29 01:25:17;;;;;;;4.40;2.77;;;17.20;99.90;;;;;;5051299;28;20454;-71
2023/09/29 01:27:43;;;;;;;6.77;2.70;;;17.00;99.90;;;;;;5050145;28;20484;-71
2023/09/29 01:30:13;;;;;;;8.37;3.13;;;16.80;99.90;;;;;;5051362;28;20421;-71
2023/09/29 01:32:43;;;;;;;3.67;2.80;;;16.70;99.90;;;;;;5051304;28;20797;-71
2023/09/29 01:35:21;;;;;;;7.80;3.10;;;16.60;99.90;;;;;;5051235;28;20966;-71
2023/09/29 01:37:48;;;;;;;4.77;3.07;;;16.60;99.90;;;;;;5049949;28;20421;-71
2023/09/29 01:40:14;;;;;;;9.60;3.10;;;16.50;99.90;;;;;;5051300;28;20407;-71
2023/09/29 01:42:41;;;;;;;6.90;3.27;;;16.40;99.90;;;;;;5048968;28;20418;-71
2023/09/29 01:45:15;;;;;;;8.97;3.60;;;16.30;99.90;;;;;;5051093;28;20965;-71
2023/09/29 01:47:45;;;;;;;4.40;3.07;;;16.30;99.90;;;;;;5049755;28;20472;-71
2023/09/29 01:50:11;;;;;;;5.83;3.23;;;16.20;99.90;;;;;;5051180;28;20412;-71
2023/09/29 01:52:38;;;;;;;8.43;2.50;;;16.10;99.90;;;;;;5051132;28;20416;-71
2023/09/29 01:55:14;;;;;;;5.27;2.90;;;16.00;99.90;;;;;;5049719;28;20440;-71
2023/09/29 01:57:40;;;;;;;3.37;2.47;;;16.00;99.90;;;;;;5050965;28;20501;-71
2023/09/29 02:00:10;;;;;;;6.90;3.47;;;15.90;99.90;;;;;;5049984;28;20456;-71
2023/09/29 02:02:36;;;;;;;3.53;2.73;;;15.90;99.90;;;;;;5051254;28;20420;-71
2023/09/29 02:05:02;;;;;;;4.60;3.20;;;15.80;99.90;;;;;;5051019;28;20452;-71
2023/09/29 02:07:27;;;;;;;6.87;3.83;;;15.80;99.90;;;;;;5050920;28;20217;-71
2023/09/29 02:09:53;;;;;;;7.70;3.13;;;15.80;99.90;;;;;;5050887;28;20220;-71
2023/09/29 02:12:19;;;;;;;3.97;2.70;;;15.80;99.90;;;;;;5049720;28;20197;-71
2023/09/29 02:14:44;;;;;;;5.50;3.20;;;15.80;99.90;;;;;;5050871;28;20193;-71
2023/09/29 02:17:10;;;;;;;3.33;2.57;;;15.70;99.90;;;;;;5049772;28;20201;-71
2023/09/29 02:19:36;;;;;;;4.20;2.83;;;15.70;99.90;;;;;;5049620;28;20663;-71
2023/09/29 02:22:03;;;;;;;4.73;3.47;;;15.60;99.90;;;;;;5049647;28;20190;-71
2023/09/29 02:24:29;;;;;;;6.80;3.60;;;15.60;99.90;;;;;;5050789;28;20205;-71
2023/09/29 02:26:55;;;;;;;8.00;3.60;;;15.60;99.90;;;;;;5050706;28;20816;-71
2023/09/29 02:29:21;;;;;;;5.97;3.00;;;15.60;99.90;;;;;;5049463;28;20421;-71
2023/09/29 02:31:46;;;;;;;3.93;2.63;;;15.50;99.90;;;;;;5050774;28;20436;-71
2023/09/29 02:34:12;;;;;;;5.80;3.50;;;15.50;99.90;;;;;;5050758;28;20187;-71
2023/09/29 02:36:40;;;;;;;4.67;2.80;;;15.40;99.90;;;;;;5050707;28;20206;-71
2023/09/29 02:39:08;;;;;;;3.70;3.00;;;15.40;99.90;;;;;;5049536;28;20771;-71
2023/09/29 02:41:33;;;;;;;4.37;3.00;;;15.30;99.90;;;;;;5050682;28;20416;-71
2023/09/29 02:43:59;;;;;;;9.07;4.13;;;15.30;99.90;;;;;;5049358;28;21250;-71
2023/09/29 02:46:25;;;;;;;5.60;2.93;;;15.10;99.90;;;;;;5050665;28;20238;-71
2023/09/29 02:48:50;;;;;;;5.87;3.13;;;15.10;99.90;;;;;;5050606;28;20189;-71
2023/09/29 02:51:17;;;;;;;6.10;2.90;;;15.10;99.90;;;;;;5049206;28;20666;-71
2023/09/29 02:53:43;;;;;;;6.13;3.20;;;15.00;99.90;;;;;;5049775;28;20235;-70
2023/09/29 02:56:12;;;;;;;5.50;3.47;;;15.00;99.90;;;;;;5053964;28;20465;-71
2023/09/29 02:58:41;;;;;;;6.10;3.60;;;15.00;99.90;;;;;;5054143;28;20414;-71
2023/09/29 03:01:12;;;;;;;5.63;3.20;;;14.90;99.90;;;;;;5054073;28;20860;-71
2023/09/29 03:03:43;;;;;;;6.97;4.00;;;14.90;99.90;;;;;;5054136;28;20494;-70
2023/09/29 03:06:16;;;;;;;4.40;3.30;;;14.80;99.90;;;;;;5054116;28;20889;-70
2023/09/29 03:08:42;;;;;;;5.43;3.37;;;14.80;99.90;;;;;;5053964;28;20446;-71
2023/09/29 03:11:09;;;;;;;6.73;3.27;;;14.80;99.90;;;;;;5053961;28;20415;-70
2023/09/29 03:13:37;;;;;;;4.97;2.87;;;14.80;99.90;;;;;;5052563;28;20792;-71
2023/09/29 03:16:04;;;;;;;5.67;3.50;;;14.90;99.90;;;;;;5053703;28;20444;-72
2023/09/29 03:18:30;;;;;;;4.70;2.60;;;15.10;99.90;;;;;;5052555;28;20415;-72
2023/09/29 03:20:57;;;;;;;5.77;2.60;;;15.40;99.90;;;;;;5053699;28;20418;-71
2023/09/29 03:23:23;;;;;;;5.63;2.53;;;15.70;99.90;;;;;;5053731;28;20189;-72
2023/09/29 03:25:49;;;;;;;4.90;3.10;;;15.90;99.90;;;;;;5053600;28;20467;-71
2023/09/29 03:28:16;;;;;;;7.07;2.87;;;16.10;99.90;;;;;;5053591;28;20262;-71
2023/09/29 03:30:42;;;;;;;4.80;2.97;;;16.30;99.90;;;;;;5053586;28;20232;-72
2023/09/29 03:33:07;;;;;;;5.27;3.57;;;16.30;99.90;;;;;;5052277;28;20416;-72
2023/09/29 03:35:33;;;;;;;6.10;2.90;;;16.30;99.90;;;;;;5053889;28;20220;-71
2023/09/29 03:38:00;;;;;;;4.87;3.20;;;16.10;99.90;;;;;;5053448;28;20181;-71
2023/09/29 03:40:26;;;;;;;7.10;3.50;;;15.90;99.90;;;;;;5053346;28;20171;-72
2023/09/29 03:42:55;;;;;;;4.93;3.80;;;15.80;99.90;;;;;;5053321;28;20413;-71
2023/09/29 03:45:21;;;;;;;6.10;3.30;;;15.70;99.90;;;;;;5018924;28;20986;-71
2023/09/29 03:47:47;;;;;;;5.40;3.20;;;15.70;99.90;;;;;;5051883;28;20478;-71
2023/09/29 03:50:12;;;;;;;5.13;3.43;;;15.50;99.90;;;;;;5051904;28;20730;-71
2023/09/29 03:52:39;;;;;;;6.30;3.10;;;15.40;99.90;;;;;;5053195;28;20176;-72
2023/09/29 03:55:06;;;;;;;4.93;3.33;;;15.30;99.90;;;;;;5053115;28;20186;-72
2023/09/29 03:57:32;;;;;;;7.23;3.73;;;15.20;99.90;;;;;;5052954;28;21023;-72
2023/09/29 03:59:57;;;;;;;8.33;3.50;;;15.10;99.90;;;;;;5052972;28;20515;-71
2023/09/29 04:02:23;;;;;;;5.60;3.23;;;15.10;99.90;;;;;;5053019;28;20662;-71
2023/09/29 04:04:49;;;;;;;8.07;3.30;;;15.00;99.90;;;;;;5052494;28;20227;-71
2023/09/29 04:07:18;;;;;;;5.90;3.43;;;15.00;99.90;;;;;;5052154;28;20214;-72
2023/09/29 04:09:44;;;;;;;5.63;3.13;;;15.10;99.90;;;;;;5051437;28;20189;-71
2023/09/29 04:12:09;;;;;;;7.43;3.20;;;15.40;99.90;;;;;;5051462;28;20422;-72
2023/09/29 04:14:35;;;;;;;11.53;3.80;;;15.80;99.90;;;;;;5034876;28;20516;-71
2023/09/29 04:17:01;;;;;;;5.40;3.13;;;16.00;99.90;;;;;;5051543;28;20177;-71
2023/09/29 04:19:26;;;;;;;4.00;3.03;;;16.20;99.90;;;;;;5034805;28;20185;-70
2023/09/29 04:21:52;;;;;;;5.90;2.70;;;16.10;99.90;;;;;;5052579;28;20428;-71
2023/09/29 04:24:18;;;;;;;6.30;3.57;;;16.10;99.90;;;;;;5052435;28;20249;-71
2023/09/29 04:26:43;;;;;;;4.90;3.23;;;16.00;99.90;;;;;;5052441;28;20213;-71
2023/09/29 04:29:09;;;;;;;5.27;3.80;;;15.90;99.90;;;;;;5051205;28;20652;-71
2023/09/29 04:31:35;;;;;;;5.30;2.90;;;15.60;99.90;;;;;;5052365;28;20179;-71
2023/09/29 04:34:00;;;;;;;5.33;3.40;;;15.40;99.90;;;;;;5050978;28;20418;-71
2023/09/29 04:36:26;;;;;;;4.70;3.83;;;15.40;99.90;;;;;;5051006;28;20234;-71
2023/09/29 04:38:51;;;;;;;7.67;3.63;;;15.30;99.90;;;;;;5052239;28;20690;-71
2023/09/29 04:41:17;;;;;;;6.50;3.17;;;15.10;99.90;;;;;;5052190;28;20231;-71
2023/09/29 04:43:44;;;;;;;4.63;3.20;;;15.00;99.90;;;;;;5052031;28;20193;-71
2023/09/29 04:46:09;;;;;;;7.10;3.53;;;14.90;99.90;;;;;;5051929;28;20209;-71
2023/09/29 04:48:35;;;;;;;5.60;3.53;;;14.90;99.90;;;;;;5052049;28;20468;-71
2023/09/29 04:51:01;;;;;;;9.93;4.20;;;14.80;99.90;;;;;;5050688;28;20177;-72
2023/09/29 04:53:26;;;;;;;10.00;3.83;;;14.70;99.90;;;;;;5051954;28;20179;-72
2023/09/29 04:55:52;;;;;;;5.77;3.63;;;14.70;99.90;;;;;;5051731;28;20704;-72
2023/09/29 04:58:17;;;;;;;6.20;3.43;;;14.60;99.90;;;;;;5033967;28;20980;-72
2023/09/29 05:00:43;;;;;;;8.53;4.30;;;14.50;99.90;;;;;;5051859;28;20591;-72
2023/09/29 05:03:10;;;;;;;8.60;3.60;;;14.40;99.90;;;;;;5051772;28;20203;-72
2023/09/29 05:05:36;;;;;;;7.20;3.40;;;14.40;99.90;;;;;;5050438;28;20199;-71
2023/09/29 05:08:02;;;;;;;9.87;4.53;;;14.30;99.90;;;;;;5051707;28;20465;-72
2023/09/29 05:10:28;;;;;;;7.63;4.63;;;14.10;99.90;;;;;;5051617;28;20964;-72
2023/09/29 05:12:53;;;;;;;13.40;3.97;;;14.10;99.90;;;;;;5051559;28;20182;-71
2023/09/29 05:15:19;;;;;;;9.53;4.10;;;14.00;99.90;;;;;;5051969;28;20204;-72
2023/09/29 05:17:45;;;;;;;4.97;3.67;;;14.00;99.90;;;;;;5050054;28;20200;-72
2023/09/29 05:20:11;;;;;;;10.40;4.40;;;13.90;99.90;;;;;;5050394;28;20184;-71
2023/09/29 05:22:37;;;;;;;5.07;3.20;;;13.90;99.90;;;;;;5051511;28;20189;-72
2023/09/29 05:25:02;;;;;;;5.80;4.50;;;13.80;99.90;;;;;;5033542;28;21304;-72
2023/09/29 05:27:29;;;;;;;4.00;3.47;;;13.80;99.90;;;;;;5051356;28;20455;-71
2023/09/29 05:29:56;;;;;;;6.00;4.10;;;13.70;99.90;;;;;;5051408;28;20420;-71
2023/09/29 05:32:23;;;;;;;6.50;3.70;;;13.60;99.90;;;;;;5051436;28;20934;-71
2023/09/29 05:34:48;;;;;;;6.50;4.07;;;13.70;99.90;;;;;;5051361;28;20871;-71
2023/09/29 05:37:14;;;;;;;7.60;3.80;;;13.60;99.90;;;;;;5051470;28;20411;-71
2023/09/29 05:39:40;;;;;;;5.27;3.37;;;13.60;99.90;;;;;;5050198;28;20198;-71
2023/09/29 05:42:06;;;;;;;4.03;3.47;;;13.70;99.90;;;;;;5051415;28;20184;-71
2023/09/29 05:44:32;;;;;;;6.00;4.37;;;13.60;99.90;;;;;;5051288;28;20440;-71
2023/09/29 05:46:57;;;;;;;5.33;3.93;;;13.60;99.90;;;;;;5049814;28;20259;-72
2023/09/29 05:49:23;;;;;;;6.90;4.70;;;13.50;99.90;;;;;;5051141;28;20203;-72
2023/09/29 05:51:48;;;;;;;7.13;3.53;;;13.60;99.90;;;;;;5051246;28;20193;-72
2023/09/29 05:54:14;;;;;;;4.23;3.07;;;13.60;99.90;;;;;;5049844;28;20563;-71
2023/09/29 05:56:39;;;;;;;8.10;3.80;;;13.60;99.90;;;;;;5050919;28;20207;-72
2023/09/29 05:59:05;;;;;;;7.57;3.70;;;13.60;99.90;;;;;;5051062;28;20658;-71
2023/09/29 06:01:30;;;;;;;3.83;3.03;;;13.60;99.90;;;;;;5049969;28;20193;-71
2023/09/29 06:03:56;;;;;;;6.07;4.20;;;13.50;99.90;;;;;;5051014;28;20191;-72
2023/09/29 06:06:23;;;;;;;7.97;3.80;;;13.50;99.90;;;;;;5049727;28;20622;-71
2023/09/29 06:08:48;;;;;;;8.37;4.10;;;13.90;99.90;;;;;;5051121;28;20200;-70
2023/09/29 06:11:14;;;;;;;5.23;3.50;;;14.30;99.90;;;;;;5050982;28;20403;-72
2023/09/29 06:13:40;;;;;;;12.30;4.23;;;14.90;99.90;;;;;;5050946;28;20708;-71
2023/09/29 06:16:06;;;;;;;5.77;3.90;;;15.30;99.90;;;;;;5033180;28;20205;-71
2023/09/29 06:18:32;;;;;;;7.70;4.40;;;15.50;99.90;;;;;;5050942;28;20425;-72
2023/09/29 06:20:58;;;;;;;5.37;3.77;;;15.50;99.90;;;;;;5049693;28;20181;-72
2023/09/29 06:23:23;;;;;;;5.30;3.50;;;15.50;99.90;;;;;;5050948;28;20792;-72
2023/09/29 06:26:01;;;;;;;8.07;3.90;;;15.60;99.90;;;;;;5050716;28;20711;-71
2023/09/29 06:28:30;;;;;;;4.10;3.60;;;15.50;99.90;;;;;;5051081;28;20228;-72
2023/09/29 06:30:57;;;;;;;5.73;3.83;;;15.50;99.90;;;;;;5054707;28;20438;-71
2023/09/29 06:33:23;;;;;;;5.10;4.27;;;15.40;99.90;;;;;;5054767;28;20468;-71
2023/09/29 06:35:49;;;;;;;6.03;4.00;;;15.10;99.90;;;;;;5054504;28;20471;-71
2023/09/29 06:38:15;;;;;;;7.00;4.07;;;15.20;99.90;;;;;;5053336;28;20408;-71
2023/09/29 06:40:43;;;;;;;8.37;4.13;;;15.20;99.90;;;;;;5054499;28;20230;-71
2023/09/29 06:43:09;;;;;;;6.27;4.27;;;15.30;99.90;;;;;;5054487;28;20443;-71
2023/09/29 06:45:34;;;;;;;5.07;3.50;;;15.40;99.90;;;;;;5054318;28;21017;-71
2023/09/29 06:48:00;;;;;;;7.13;4.00;;;15.60;99.90;;;;;;5054376;28;20183;-71
2023/09/29 06:50:26;;;;;;;11.20;3.50;;;15.70;99.90;;;;;;5053078;28;20189;-71
2023/09/29 06:52:51;;;;;;;8.00;4.27;;;15.80;99.90;;;;;;5054358;28;20181;-71
2023/09/29 06:55:17;;;;;;;7.03;3.97;;;15.80;99.90;;;;;;5052963;28;20572;-71
2023/09/29 06:57:43;;;;;;;5.93;3.20;;;15.90;99.90;;;;;;5054158;28;20248;-71
2023/09/29 07:00:09;;;;;;;7.33;4.20;;;16.00;99.90;;;;;;5054231;28;20188;-71
2023/09/29 07:02:37;;;;;;;7.00;4.37;;;16.10;99.90;;;;;;5036425;28;20231;-71
2023/09/29 07:05:03;;;;;;;13.50;4.00;;;16.20;99.90;;;;;;5054093;28;20444;-71
2023/09/29 07:07:29;;;;;;;7.03;4.40;;;16.20;99.90;;;;;;5035942;28;20477;-71
2023/09/29 07:09:55;;;;;;;6.90;3.33;;;16.20;99.90;;;;;;5053975;28;20426;-71
2023/09/29 07:12:21;;;;;;;5.97;3.93;;;16.30;99.90;;;;;;5036042;28;20605;-71
2023/09/29 07:14:47;;;;;;;5.67;3.77;;;16.50;99.90;;;;;;5052417;28;20571;-72
2023/09/29 07:17:13;;;;;;;5.60;3.67;;;16.70;99.90;;;;;;5053852;28;20910;-71
2023/09/29 07:19:38;;;;;;;5.70;3.90;;;16.90;99.90;;;;;;5036003;28;20440;-71
2023/09/29 07:22:04;;;;;;;5.23;3.60;;;17.00;99.90;;;;;;5053740;28;20216;-72
2023/09/29 07:24:29;;;;;;;9.03;4.00;;;17.20;99.90;;;;;;5053665;28;20214;-71
2023/09/29 07:26:55;;;;;;;4.47;3.97;;;17.30;99.90;;;;;;5053589;28;20207;-72
2023/09/29 07:29:21;;;;;;;6.63;4.60;;;17.40;99.90;;;;;;5053568;28;20282;-71
2023/09/29 07:31:48;;;;;;;13.37;6.80;;;17.50;99.90;;;;;;5053622;28;20185;-72
2023/09/29 07:34:15;;;;;;;14.17;9.67;;;17.50;99.90;;;;;;5035807;28;21897;-72
2023/09/29 07:36:43;;;;;;;16.00;10.30;;;17.70;99.90;;;;;;5053585;28;20508;-72
2023/09/29 07:39:11;;;;;;;21.30;12.77;;;17.80;99.90;;;;;;5052080;28;20438;-71
2023/09/29 07:41:37;;;;;;;17.27;9.57;;;17.90;99.90;;;;;;5053311;28;20845;-72
2023/09/29 07:44:03;;;;;;;9.10;6.97;;;17.90;99.90;;;;;;5053287;28;20430;-72
2023/09/29 07:46:29;;;;;;;12.33;7.40;;;17.90;99.90;;;;;;5051988;28;20249;-72
2023/09/29 07:48:54;;;;;;;9.20;5.40;;;18.00;99.90;;;;;;5053309;28;20180;-72
2023/09/29 07:51:20;;;;;;;10.67;4.40;;;18.00;99.90;;;;;;5051939;28;20464;-71
2023/09/29 07:53:45;;;;;;;9.00;4.20;;;18.20;99.90;;;;;;5053203;28;20205;-71
2023/09/29 07:56:11;;;;;;;6.23;3.70;;;18.30;99.90;;;;;;5051375;28;20649;-72
2023/09/29 07:58:38;;;;;;;5.40;3.80;;;18.40;99.90;;;;;;5053156;28;20196;-72
2023/09/29 08:01:04;;;;;;;9.07;3.87;;;18.50;99.90;;;;;;5051847;28;20184;-71
2023/09/29 08:03:29;;;;;;;5.87;3.30;;;18.60;99.90;;;;;;5051760;28;20451;-72
2023/09/29 08:05:55;;;;;;;7.50;4.03;;;18.70;99.90;;;;;;5052849;28;20258;-72
2023/09/29 08:08:21;;;;;;;6.83;3.90;;;18.80;99.90;;;;;;5051616;28;20298;-72
2023/09/29 08:10:47;;;;;;;12.20;3.83;;;18.90;99.90;;;;;;5052796;28;20625;-72
2023/09/29 08:13:13;;;;;;;10.43;4.27;;;18.90;99.90;;;;;;5051500;28;20449;-72
2023/09/29 08:15:38;;;;;;;8.67;4.30;;;19.10;99.90;;;;;;5051498;28;20265;-72
2023/09/29 08:18:04;;;;;;;6.30;4.03;;;19.20;99.90;;;;;;5052663;28;20211;-72
2023/09/29 08:20:30;;;;;;;10.50;4.20;;;19.20;99.90;;;;;;5051425;28;20215;-72
2023/09/29 08:22:56;;;;;;;10.80;4.17;;;19.40;99.90;;;;;;5052639;28;20197;-72
2023/09/29 08:25:22;;;;;;;6.63;4.10;;;19.50;99.90;;;;;;5052430;28;20290;-70
2023/09/29 08:27:47;;;;;;;6.50;4.00;;;19.60;99.90;;;;;;5051223;28;20576;-70
2023/09/29 08:30:13;;;;;;;6.90;4.03;;;19.50;99.90;;;;;;5051173;28;20223;-71
2023/09/29 08:32:42;;;;;;;6.93;3.60;;;19.60;99.90;;;;;;5052531;28;20176;-70
2023/09/29 08:35:12;;;;;;;10.77;3.50;;;19.60;99.90;;;;;;5050952;28;20673;-72
2023/09/29 08:37:45;;;;;;;7.90;3.97;;;19.70;99.90;;;;;;5052277;28;20418;-72
2023/09/29 08:40:16;;;;;;;12.20;3.80;;;19.70;99.90;;;;;;5052306;28;20421;-71
2023/09/29 08:42:46;;;;;;;7.33;3.60;;;19.70;99.90;;;;;;5050982;28;20428;-72
2023/09/29 08:45:12;;;;;;;9.37;3.83;;;19.80;99.90;;;;;;5052124;28;20442;-71
2023/09/29 08:47:40;;;;;;;7.10;4.13;;;19.90;99.90;;;;;;5052139;28;20462;-71
2023/09/29 08:50:10;;;;;;;7.13;4.00;;;20.20;99.90;;;;;;5052203;28;20438;-72
2023/09/29 08:52:37;;;;;;;14.40;5.70;;;20.40;99.90;;;;;;5051592;28;20504;-71
2023/09/29 08:55:03;;;;;;;8.83;3.83;;;20.60;99.90;;;;;;5052053;28;21073;-71
2023/09/29 08:57:29;;;;;;;5.77;4.23;;;20.90;99.90;;;;;;5050366;28;20489;-71
2023/09/29 08:59:56;;;;;;;10.30;4.00;;;21.10;99.90;;;;;;5051892;28;20419;-72
2023/09/29 09:02:25;;;;;;;5.83;3.60;;;21.40;99.90;;;;;;5051856;28;20418;-72
2023/09/29 09:04:50;;;;;;;6.40;4.03;;;21.80;99.90;;;;;;5018164;28;20449;-72
2023/09/29 09:07:18;;;;;;;10.70;3.80;;;22.10;99.90;;;;;;5050479;28;20477;-72
2023/09/29 09:09:52;;;;;;;5.43;3.43;;;22.40;99.90;;;;;;5050411;28;20183;-72
2023/09/29 09:12:18;;;;;;;7.73;4.50;;;22.80;99.90;;;;;;5051837;28;20409;-72
2023/09/29 09:14:47;;;;;;;11.03;3.30;;;23.20;99.90;;;;;;5051742;28;20437;-72
2023/09/29 09:17:13;;;;;;;8.03;4.33;;;23.60;99.90;;;;;;5050484;28;20417;-72
2023/09/29 09:19:50;;;;;;;10.33;3.90;;;24.00;99.90;;;;;;5051508;28;20434;-72
2023/09/29 09:22:25;;;;;;;7.63;4.00;;;24.80;99.90;;;;;;5051718;28;20188;-72
2023/09/29 09:25:08;;;;;;;8.20;4.27;;;25.50;99.90;;;;;;5051579;28;20433;-71
2023/09/29 09:27:42;;;;;;;11.77;3.50;;;25.40;98.60;;;;;;5050185;28;20475;-72
2023/09/29 09:30:21;;;;;;;12.20;3.63;;;25.40;97.80;;;;;;5051391;28;20421;-73
2023/09/29 09:32:47;;;;;;;9.87;4.27;;;25.60;99.90;;;;;;5050216;28;20415;-72
2023/09/29 09:35:23;;;;;;;5.70;3.53;;;25.40;99.90;;;;;;5051370;28;20852;-73
2023/09/29 09:37:51;;;;;;;5.30;3.50;;;25.60;99.90;;;;;;5050003;28;20425;-73
2023/09/29 09:40:18;;;;;;;4.50;2.83;;;26.20;99.00;;;;;;5050015;28;20454;-73
2023/09/29 09:42:48;;;;;;;4.17;2.70;;;27.00;97.80;;;;;;5051270;28;20425;-73
2023/09/29 09:45:14;;;;;;;3.43;2.37;;;27.80;90.90;;;;;;5051306;28;20445;-72
2023/09/29 09:47:41;;;;;;;2.90;2.37;;;28.20;81.30;;;;;;5051203;28;21010;-72
2023/09/29 09:50:09;;;;;;;6.10;2.70;;;28.80;80.80;;;;;;5051231;28;20182;-72
2023/09/29 09:52:35;;;;;;;6.00;3.20;;;29.20;83.70;;;;;;5049747;28;20423;-72
2023/09/29 09:55:12;;;;;;;4.83;2.73;;;29.40;85.40;;;;;;5051097;28;20477;-72
2023/09/29 09:57:42;;;;;;;5.17;2.30;;;30.10;85.50;;;;;;5051162;28;20257;-72
2023/09/29 10:00:10;;;;;;;2.50;2.27;;;30.50;82.70;;;;;;5051105;28;20414;-72
2023/09/29 10:02:52;;;;;;;3.20;2.00;;;30.30;99.90;;;;;;5049672;28;20872;-72
2023/09/29 10:05:22;;;;;;;2.83;2.63;;;30.20;99.90;;;;;;5054479;28;20476;-72
2023/09/29 10:07:55;;;;;;;3.60;2.67;;;30.60;99.90;;;;;;5055520;28;20466;-73
2023/09/29 10:10:33;;;;;;;3.43;2.40;;;30.50;99.90;;;;;;5053869;28;20510;-73
2023/09/29 10:13:03;;;;;;;2.60;2.17;;;30.90;99.90;;;;;;5053886;28;20417;-73
2023/09/29 10:15:29;;;;;;;2.30;2.10;;;31.40;99.90;;;;;;5054906;28;20520;-73
2023/09/29 10:18:17;;;;;;;5.73;2.53;;;31.50;99.90;;;;;;5053587;28;20500;-73
2023/09/29 10:20:44;;;;;;;5.10;2.40;;;31.70;99.90;;;;;;5053528;28;20472;-73
2023/09/29 10:23:13;;;;;;;2.93;2.20;;;31.70;99.90;;;;;;5055022;28;20505;-73
2023/09/29 10:25:44;;;;;;;2.80;2.53;;;31.90;99.90;;;;;;5054864;28;20438;-73
2023/09/29 10:28:12;;;;;;;4.30;2.37;;;32.10;99.90;;;;;;5054863;28;20915;-72
2023/09/29 10:30:39;;;;;;;4.13;2.43;;;32.40;99.90;;;;;;5054758;28;20425;-74
2023/09/29 10:33:11;;;;;;;2.37;2.00;;;31.80;99.90;;;;;;5053474;28;20449;-73
2023/09/29 10:35:46;;;;;;;3.03;2.20;;;31.50;99.90;;;;;;5054848;28;20469;-72
2023/09/29 10:38:30;;;;;;;6.30;2.50;;;31.20;99.90;;;;;;5054658;28;20423;-73
2023/09/29 10:40:58;;;;;;;2.43;2.23;;;31.00;99.90;;;;;;5054637;28;20414;-72
2023/09/29 10:43:24;;;;;;;4.20;2.70;;;31.10;99.90;;;;;;5054581;28;20513;-72
2023/09/29 10:45:51;;;;;;;2.40;2.03;;;31.40;99.90;;;;;;5053291;28;20820;-73
2023/09/29 10:48:26;;;;;;;6.00;2.90;;;31.50;99.90;;;;;;5054566;28;20421;-71
2023/09/29 10:50:52;;;;;;;3.67;2.50;;;31.50;99.90;;;;;;5053086;28;20431;-72
2023/09/29 10:53:21;;;;;;;5.90;2.13;;;32.00;99.90;;;;;;5054324;28;20911;-73
2023/09/29 10:55:56;;;;;;;4.27;2.00;;;32.10;99.90;;;;;;5052655;28;20209;-73
2023/09/29 10:58:22;;;;;;;2.83;2.60;;;32.30;99.90;;;;;;5053069;28;20414;-71
2023/09/29 11:00:52;;;;;;;4.27;2.43;;;32.40;99.90;;;;;;5051756;28;20427;-73
2023/09/29 11:03:26;;;;;;;2.40;2.30;;;32.30;99.90;;;;;;5051654;28;20199;-72
2023/09/29 11:05:57;;;;;;;2.60;2.40;;;32.30;99.90;;;;;;5052779;28;20422;-71
2023/09/29 11:08:34;;;;;;;4.07;2.47;;;32.30;99.90;;;;;;5052871;28;20942;-74
2023/09/29 11:11:02;;;;;;;6.63;2.80;;;32.10;99.90;;;;;;5052810;28;20473;-73
2023/09/29 11:13:29;;;;;;;4.30;2.57;;;32.20;99.90;;;;;;5051519;28;20422;-73
2023/09/29 11:15:56;;;;;;;4.70;2.33;;;32.30;99.90;;;;;;5052311;28;20972;-73
2023/09/29 11:18:39;;;;;;;4.30;2.63;;;32.20;99.90;;;;;;5052623;28;20446;-73
2023/09/29 11:21:11;;;;;;;3.30;3.00;;;32.10;99.90;;;;;;5052604;28;20418;-73
2023/09/29 11:23:45;;;;;;;4.10;2.80;;;31.80;99.90;;;;;;5052693;28;20417;-72
2023/09/29 11:26:12;;;;;;;4.77;2.13;;;31.80;99.90;;;;;;5052425;28;20464;-72
2023/09/29 11:28:42;;;;;;;6.17;2.80;;;31.70;99.90;;;;;;5052485;28;20437;-73
2023/09/29 11:31:09;;;;;;;3.83;3.33;;;31.70;99.90;;;;;;5052534;28;20418;-73
2023/09/29 11:33:35;;;;;;;5.27;2.83;;;31.40;99.90;;;;;;5034758;28;20425;-73
2023/09/29 11:36:13;;;;;;;3.47;3.13;;;31.40;99.90;;;;;;5051110;28;20442;-73
2023/09/29 11:38:38;;;;;;;5.97;2.93;;;31.40;99.90;;;;;;5052440;28;20171;-73
2023/09/29 11:41:07;;;;;;;5.27;2.97;;;31.10;99.90;;;;;;5051090;28;20432;-73
2023/09/29 11:43:33;;;;;;;6.40;2.80;;;31.00;99.90;;;;;;5050980;28;20191;-73
2023/09/29 11:45:59;;;;;;;6.80;2.77;;;31.20;99.90;;;;;;5052569;28;20464;-73
2023/09/29 11:48:25;;;;;;;5.13;2.63;;;31.20;99.90;;;;;;5052226;28;20433;-72
2023/09/29 11:50:53;;;;;;;4.10;3.07;;;31.10;99.90;;;;;;5052278;28;20991;-72
2023/09/29 11:53:19;;;;;;;4.33;2.87;;;30.90;99.90;;;;;;5052139;28;20922;-73
2023/09/29 11:55:45;;;;;;;4.22;2.72;;;30.80;99.90;;;;;;5014295;28;1084652;-73
2023/09/29 11:58:10;;;;;;;2.83;2.50;;;30.80;99.90;;;;;;5053177;28;20505;-74
2023/09/29 12:00:36;;;;;;;3.93;2.70;;;30.70;99.90;;;;;;5053147;28;20180;-72
2023/09/29 12:03:05;;;;;;;5.00;2.23;;;30.80;99.90;;;;;;5051692;28;20176;-72
2023/09/29 12:05:34;;;;;;;4.90;2.50;;;30.50;99.90;;;;;;5035267;28;20207;-72
2023/09/29 12:08:02;;;;;;;4.90;2.70;;;30.60;99.90;;;;;;5053000;28;20491;-73
2023/09/29 12:10:28;;;;;;;7.53;3.00;;;30.60;99.90;;;;;;5052779;28;20943;-73
2023/09/29 12:12:54;;;;;;;7.43;3.60;;;30.40;99.90;;;;;;5052753;28;20950;-73
2023/09/29 12:15:20;;;;;;;5.43;3.37;;;30.50;99.90;;;;;;5052607;28;20440;-73
2023/09/29 12:17:45;;;;;;;3.43;2.70;;;30.50;99.90;;;;;;5051290;28;20198;-73
2023/09/29 12:20:14;;;;;;;5.83;3.40;;;30.50;99.90;;;;;;5052825;28;20211;-73
2023/09/29 12:22:43;;;;;;;7.30;2.93;;;30.50;99.90;;;;;;5052629;28;20186;-71
2023/09/29 12:25:11;;;;;;;6.40;2.90;;;30.50;99.90;;;;;;5052534;28;20477;-73
2023/09/29 12:27:37;;;;;;;7.43;2.70;;;30.30;99.90;;;;;;5034167;28;20881;-72
2023/09/29 12:30:07;;;;;;;9.10;3.20;;;30.50;99.90;;;;;;5051227;28;20407;-72
2023/09/29 12:32:32;;;;;;;7.70;3.20;;;30.30;99.90;;;;;;5051198;28;20419;-71
2023/09/29 12:34:58;;;;;;;9.67;2.80;;;30.20;99.90;;;;;;5050939;28;20461;-72
2023/09/29 12:37:24;;;;;;;8.30;3.33;;;30.30;99.90;;;;;;5052327;28;20230;-74
2023/09/29 12:39:49;;;;;;;6.30;3.00;;;30.40;99.90;;;;;;5051012;28;20497;-73
2023/09/29 12:42:15;;;;;;;5.07;2.73;;;30.30;99.90;;;;;;5052285;28;20178;-72
2023/09/29 12:44:41;;;;;;;2.80;2.60;;;30.10;99.90;;;;;;5051139;28;20203;-73
2023/09/29 12:47:09;;;;;;;7.37;3.30;;;30.20;99.90;;;;;;5050682;28;20721;-71
2023/09/29 12:49:36;;;;;;;5.07;2.90;;;30.10;99.90;;;;;;5050751;28;20430;-72